12:12
Airports
History
Links
Donate
Help keep this website running!
PayPal
Bitcoin
This page is community maintained. The information is intended for PC simulator navigation or reference.
Always use approved charts for navigation.
CCA7
Apple River
Apple River (CCA7)
Advocate Harbour, Nova Scotia, Canada
4
Lat/Lng:45° 27' 43" N / 64° 49' 17" W
45.461944 / -64.821389
Elevation:135'ft / 41mMSL
ID / ICAO:CCA7
Runways:1
Longest:09-27
Grass 756m / 2,482ft
Nearby Weather12:00 GMT 2017-12-12
Nearby weather at CYZX, Greenwood located 33.3 nautical miles from CCA7
Altimeter: 30.08
Visibility: 15.0 statute miles
Wind: 4 knots (from 060°)
Temp: -3°c / 27°f
Humidity: 86.0%

METAR: CYZX 121200Z 06004KT 15SM OVC014 M03/M05 A3008 RMK SC8 WNDY HILL UNAVBL SLP186

(Powered by phpweather)
Airport Radio Frequencies
ATF: 123.2
Nearby VORs <50NM
Nearby NDBs
Runway 09 / 27
Dimensions:756.4 x 14.9m 2482' x 49'ft
Surface:Grass
Runway 09 [A]Runway 27 [B]
Heading:071°TH 251°TH
Lat:
Lng:
45° 27' 39.16"N
64° 49' 33.73"W
45° 27' 46.83"N
64° 49' 0.27"W
User Notes and Comments
45° 27' 43" N / 64° 49' 17" W
Distance To
Airport ID:
Nearby Airports
(C) Waterville Kings Co Muni 29.5 NM
CCW3 SSE 163°
(C) Greenwood 33.3 NM
CYZX ( WX ) S 188°
(C) GREATER MONCTON INTL 45.4 NM
CYQM ( WX ) N
(U) Moncton McEwen 47.9 NM
CCG4 N
4 STANLEY 50.4 NM
CCW4 ESE 119°
(C) Saint John 52.8 NM
CYSJ ( WX ) W 259°
(U) DEBERT 66.0 NM
CCQ3 E 92°
VFR Chart
Flight Planning at SkyVector.com